PORTS® Data Listing: 8737048 Mobile State Docks, AL

CO-OPS RAW PORTS DATA

************************      PRELIMINARY DATA      ************************** 

     THIS RAW DATA HAS NOT BEEN SUBJECT TO THE NATIONAL OCEAN SERVICE'S        
     QUALITY CONTROL OR QUALITY ASSURANCE PROCEDURES AND DOES NOT MEET         
     THE CRITERIA AND STANDARDS OF OFFICIAL NATIONAL OCEAN SERVICE             
     DATA.  IT IS RELEASED FOR LIMITED PUBLIC USE AS PRELIMINARY DATA TO       
     BE USED ONLY WITH APPROPRIATE CAUTION.                                    

************************      PRELIMINARY DATA      ************************** 


       CD   -   Calendar date
       T    -   Time
       TZ   -   Timezone
       PW   -   Predicted water level (feet above MLLW)
       OW   -   Observed water level (feet above MLLW)
       WS   -   Wind speed (knots)
       WD   -   Wind direction (degrees true)
       WG   -   Wind gust (knots)
       AT   -   Air temperature (degrees farenheit)
       WT   -   Water temperature (degrees farenheit)
       AP   -   Air pressure (millibars)
       SA   -   Salinty (PSU - Practical Salinity Units)
       SG   -   Specific gravity
       RH   -   Relative humidity
       AG   -   Air gap (feet)
       VI   -   Visibility (nautical miles)

       ** NOTE **
       A variable that has its data fields filled with "9"s, indicates that
       data was not collected for that sample period.
       **********


STATION NAME: Mobile State Docks (8737048)
****************************************************************************************************
    CD       T    TZ    PW     OW    WS   WD   WG    AT    WT    AP    SA    SG     RH    AG   VI
****************************************************************************************************
2019/12/07 10:00 CST    0.22   0.49 -999 -999 -999  56.8  59.2 1023.4  3.1  1.002 -99.9 -99.99 -9.99
2019/12/07 10:06 CST    0.22   0.50 -999 -999 -999  57.0  59.0 1023.6  2.9  1.002 -99.9 -99.99 -9.99
2019/12/07 10:12 CST    0.22   0.51 -999 -999 -999  56.7  59.0 1023.5  2.9  1.002 -99.9 -99.99 -9.99
2019/12/07 10:18 CST    0.23   0.53 -999 -999 -999  56.7  59.0 1023.5  2.9  1.002 -99.9 -99.99 -9.99
2019/12/07 10:24 CST    0.23   0.55 -999 -999 -999  57.0  59.0 1023.4  2.9  1.002 -99.9 -99.99 -9.99
2019/12/07 10:30 CST    0.23   0.54 -999 -999 -999  56.5  59.0 1023.5  2.9  1.002 -99.9 -99.99 -9.99
2019/12/07 10:36 CST    0.24   0.55 -999 -999 -999  56.8  59.2 1023.5  3.4  1.003 -99.9 -99.99 -9.99
2019/12/07 10:42 CST    0.24   0.55 -999 -999 -999  56.7  59.0 1023.5  3.1  1.002 -99.9 -99.99 -9.99
2019/12/07 10:48 CST    0.24   0.55 -999 -999 -999  56.7  59.0 1023.3  3.1  1.002 -99.9 -99.99 -9.99
2019/12/07 10:54 CST    0.25   0.57 -999 -999 -999  56.7  59.0 1023.3  3.3  1.003 -99.9 -99.99 -9.99
2019/12/07 11:00 CST    0.25   0.59 -999 -999 -999  57.0  59.0 1023.2  3.0  1.002 -99.9 -99.99 -9.99
2019/12/07 11:06 CST    0.26   0.60 -999 -999 -999  57.2  59.0 1023.1  3.1  1.002 -99.9 -99.99 -9.99
2019/12/07 11:12 CST    0.26   0.63 -999 -999 -999  57.4  59.0 1023.0  2.9  1.002 -99.9 -99.99 -9.99
2019/12/07 11:18 CST    0.27   0.64 -999 -999 -999  57.2  59.2 1023.0  3.5  1.003 -99.9 -99.99 -9.99
2019/12/07 11:24 CST    0.27   0.65 -999 -999 -999  57.0  59.0 1022.9  3.0  1.002 -99.9 -99.99 -9.99
2019/12/07 11:30 CST    0.27   0.67 -999 -999 -999  56.8  59.0 1022.9  2.9  1.002 -99.9 -99.99 -9.99
2019/12/07 11:36 CST    0.28   0.65 -999 -999 -999  57.0  59.0 1022.8  3.1  1.002 -99.9 -99.99 -9.99
2019/12/07 11:42 CST    0.28   0.66 -999 -999 -999  57.0  59.2 1022.8  3.2  1.002 -99.9 -99.99 -9.99
2019/12/07 11:48 CST    0.29   0.67 -999 -999 -999  57.0  59.0 1022.7  3.2  1.002 -99.9 -99.99 -9.99
2019/12/07 11:54 CST    0.29   0.69 -999 -999 -999  57.2  59.2 1022.7  3.4  1.003 -99.9 -99.99 -9.99
2019/12/07 12:00 CST    0.30   0.71 -999 -999 -999  57.6  59.2 1022.7  3.5  1.003 -99.9 -99.99 -9.99
2019/12/07 12:06 CST    0.30   0.72 -999 -999 -999  57.6  59.2 1022.6  3.7  1.003 -99.9 -99.99 -9.99
2019/12/07 12:12 CST    0.31   0.71 -999 -999 -999  57.4  59.2 1022.5  3.4  1.003 -99.9 -99.99 -9.99
2019/12/07 12:18 CST    0.31   0.71 -999 -999 -999  57.6  59.2 1022.4  3.3  1.002 -99.9 -99.99 -9.99
2019/12/07 12:24 CST    0.31   0.73 -999 -999 -999  58.1  59.2 1022.4  3.4  1.003 -99.9 -99.99 -9.99
2019/12/07 12:30 CST    0.32   0.72 -999 -999 -999  58.5  59.2 1022.3  3.4  1.003 -99.9 -99.99 -9.99
2019/12/07 12:36 CST    0.32   0.74 -999 -999 -999  58.3  59.5 1022.3  4.5  1.003 -99.9 -99.99 -9.99
2019/12/07 12:42 CST    0.33   0.75 -999 -999 -999  58.3  59.2 1022.2  3.2  1.002 -99.9 -99.99 -9.99
2019/12/07 12:48 CST    0.33   0.75 -999 -999 -999  58.1  59.2 1022.3  3.1  1.002 -99.9 -99.99 -9.99
2019/12/07 12:54 CST    0.34   0.75 -999 -999 -999  57.9  59.2 1022.2  3.5  1.003 -99.9 -99.99 -9.99
2019/12/07 13:00 CST    0.34   0.74 -999 -999 -999  58.1  59.5 1022.2  4.6  1.003 -99.9 -99.99 -9.99
2019/12/07 13:06 CST    0.35   0.77 -999 -999 -999  58.5  59.2 1022.1  3.6  1.003 -99.9 -99.99 -9.99
2019/12/07 13:12 CST    0.35   0.79 -999 -999 -999  58.8  59.2 1022.1  3.4  1.003 -99.9 -99.99 -9.99
2019/12/07 13:18 CST    0.36   0.79 -999 -999 -999  58.6  59.2 1022.0  3.4  1.003 -99.9 -99.99 -9.99
2019/12/07 13:24 CST    0.36   0.79 -999 -999 -999  59.0  59.4 1022.0  3.6  1.003 -99.9 -99.99 -9.99
2019/12/07 13:30 CST    0.37   0.82 -999 -999 -999  59.5  59.2 1022.0  3.4  1.003 -99.9 -99.99 -9.99
2019/12/07 13:36 CST    0.37   0.82 -999 -999 -999  60.1  59.2 1021.9  3.6  1.003 -99.9 -99.99 -9.99
2019/12/07 13:42 CST    0.38   0.82 -999 -999 -999  60.3  59.2 1021.8  3.4  1.003 -99.9 -99.99 -9.99
2019/12/07 13:48 CST    0.39   0.81 -999 -999 -999  60.6  59.2 1021.7  3.4  1.003 -99.9 -99.99 -9.99
2019/12/07 13:54 CST    0.39   0.83 -999 -999 -999  60.6  59.2 1021.8  3.3  1.002 -99.9 -99.99 -9.99
2019/12/07 14:00 CST    0.40   0.83 -999 -999 -999  60.3  59.2 1021.7  3.5  1.003 -99.9 -99.99 -9.99
2019/12/07 14:06 CST    0.41   0.83 -999 -999 -999  60.4  59.2 1021.7  3.4  1.003 -99.9 -99.99 -9.99
2019/12/07 14:12 CST    0.41   0.79 -999 -999 -999  60.8  59.4 1021.7  3.7  1.003 -99.9 -99.99 -9.99
2019/12/07 14:18 CST    0.42   0.83 -999 -999 -999  60.6  59.4 1021.7  3.7  1.003 -99.9 -99.99 -9.99
2019/12/07 14:24 CST    0.43   0.83 -999 -999 -999  60.6  59.4 1021.7  3.7  1.003 -99.9 -99.99 -9.99
2019/12/07 14:30 CST    0.43   0.82 -999 -999 -999  60.6  59.4 1021.7  3.4  1.003 -99.9 -99.99 -9.99
2019/12/07 14:36 CST    0.44   0.82 -999 -999 -999  60.4  59.2 1021.7  3.2  1.002 -99.9 -99.99 -9.99
2019/12/07 14:42 CST    0.45   0.84 -999 -999 -999  61.0  59.4 1021.7  3.6  1.003 -99.9 -99.99 -9.99
2019/12/07 14:48 CST    0.46   0.83 -999 -999 -999  60.6  59.4 1021.7  3.4  1.003 -99.9 -99.99 -9.99
2019/12/07 14:54 CST    0.47   0.83 -999 -999 -999  61.0  59.2 1021.7  3.4  1.003 -99.9 -99.99 -9.99
2019/12/07 15:00 CST    0.48   0.86 -999 -999 -999  60.8  59.4 1021.7  3.5  1.003 -99.9 -99.99 -9.99
2019/12/07 15:06 CST    0.49   0.83 -999 -999 -999  60.8  59.2 1021.8  3.1  1.002 -99.9 -99.99 -9.99
2019/12/07 15:12 CST    0.49   0.86 -999 -999 -999  61.0  59.4 1021.8  3.3  1.003 -99.9 -99.99 -9.99
2019/12/07 15:18 CST    0.50   0.85 -999 -999 -999  61.0  59.4 1021.8  3.6  1.003 -99.9 -99.99 -9.99
2019/12/07 15:24 CST    0.51   0.84 -999 -999 -999  60.8  59.4 1021.9  3.5  1.003 -99.9 -99.99 -9.99
2019/12/07 15:30 CST    0.52   0.82 -999 -999 -999  60.6  59.4 1021.9  3.6  1.003 -99.9 -99.99 -9.99
2019/12/07 15:36 CST    0.54   0.82 -999 -999 -999  60.6  59.4 1021.8  3.6  1.003 -99.9 -99.99 -9.99
2019/12/07 15:42 CST    0.55   0.84 -999 -999 -999  60.4  59.4 1021.8  3.5  1.003 -99.9 -99.99 -9.99
2019/12/07 15:48 CST    0.56   0.83 -999 -999 -999  60.6  59.4 1021.8  3.7  1.003 -99.9 -99.99 -9.99
2019/12/07 15:54 CST    0.57   0.84 -999 -999 -999  60.6  59.4 1021.8  3.5  1.003 -99.9 -99.99 -9.99
2019/12/07 16:00 CST    0.58   0.83 -999 -999 -999  60.6  59.4 1021.8  3.5  1.003 -99.9 -99.99 -9.99
2019/12/07 16:06 CST    0.59   0.84 -999 -999 -999  60.4  59.4 1021.9  3.4  1.003 -99.9 -99.99 -9.99
2019/12/07 16:12 CST    0.60   0.84 -999 -999 -999  60.3  59.4 1021.9  3.3  1.003 -99.9 -99.99 -9.99
2019/12/07 16:18 CST    0.62   0.87 -999 -999 -999  60.4  59.4 1021.8  3.4  1.003 -99.9 -99.99 -9.99
2019/12/07 16:24 CST    0.63   0.88 -999 -999 -999  60.4  59.2 1021.8  3.3  1.002 -99.9 -99.99 -9.99
2019/12/07 16:30 CST    0.64   0.90 -999 -999 -999  60.3  59.4 1021.8  3.2  1.002 -99.9 -99.99 -9.99
2019/12/07 16:36 CST    0.65   0.90 -999 -999 -999  60.1  59.2 1021.8  3.2  1.002 -99.9 -99.99 -9.99
2019/12/07 16:42 CST    0.67   0.93 -999 -999 -999  60.1  59.2 1021.8  3.1  1.002 -99.9 -99.99 -9.99
2019/12/07 16:48 CST    0.68   0.94 -999 -999 -999  59.9  59.2 1021.7  3.3  1.003 -99.9 -99.99 -9.99
2019/12/07 16:54 CST    0.69   0.97 -999 -999 -999  59.5  59.2 1021.8  3.2  1.002 -99.9 -99.99 -9.99
2019/12/07 17:00 CST    0.71   0.99 -999 -999 -999  59.4  59.2 1021.8  3.2  1.002 -99.9 -99.99 -9.99
2019/12/07 17:06 CST    0.72   1.01 -999 -999 -999  59.2  59.2 1021.9  3.0  1.002 -99.9 -99.99 -9.99
2019/12/07 17:12 CST    0.73   1.02 -999 -999 -999  58.8  59.2 1021.8  3.1  1.002 -99.9 -99.99 -9.99
2019/12/07 17:18 CST    0.75   1.05 -999 -999 -999  58.6  59.2 1021.8  3.1  1.002 -99.9 -99.99 -9.99
2019/12/07 17:24 CST    0.76   1.06 -999 -999 -999  58.6  59.4 1021.9  3.1  1.002 -99.9 -99.99 -9.99
2019/12/07 17:30 CST    0.77   1.11 -999 -999 -999  58.5  59.2 1022.0  2.9  1.002 -99.9 -99.99 -9.99
2019/12/07 17:36 CST    0.79   1.12 -999 -999 -999  58.1  59.5 1022.1  3.6  1.003 -99.9 -99.99 -9.99
2019/12/07 17:42 CST    0.80   1.13 -999 -999 -999  58.1  59.2 1022.1  3.2  1.002 -99.9 -99.99 -9.99
2019/12/07 17:48 CST    0.81   1.15 -999 -999 -999  57.9  59.2 1022.1  3.0  1.002 -99.9 -99.99 -9.99
2019/12/07 17:54 CST    0.82   1.18 -999 -999 -999  57.7  59.2 1022.1  2.8  1.002 -99.9 -99.99 -9.99
2019/12/07 18:00 CST    0.84   1.20 -999 -999 -999  57.6  59.2 1022.2  2.9  1.002 -99.9 -99.99 -9.99
2019/12/07 18:06 CST    0.85   1.21 -999 -999 -999  57.4  59.4 1022.3  3.3  1.003 -99.9 -99.99 -9.99
2019/12/07 18:12 CST    0.86   1.21 -999 -999 -999  57.0  59.4 1022.4  3.9  1.003 -99.9 -99.99 -9.99
2019/12/07 18:18 CST    0.87   1.23 -999 -999 -999  56.8  59.2 1022.4  3.4  1.003 -99.9 -99.99 -9.99
2019/12/07 18:24 CST    0.89   1.25 -999 -999 -999  56.7  59.4 1022.5  3.1  1.002 -99.9 -99.99 -9.99
2019/12/07 18:30 CST    0.90   1.26 -999 -999 -999  56.7  59.4 1022.5  3.7  1.003 -99.9 -99.99 -9.99
2019/12/07 18:36 CST    0.91   1.26 -999 -999 -999  56.8  59.5 1022.5  4.3  1.003 -99.9 -99.99 -9.99
2019/12/07 18:42 CST    0.92   1.27 -999 -999 -999  57.0  59.5 1022.6  4.3  1.003 -99.9 -99.99 -9.99
2019/12/07 18:48 CST    0.93   1.29 -999 -999 -999  57.2  59.5 1022.6  4.2  1.003 -99.9 -99.99 -9.99
2019/12/07 18:54 CST    0.94   1.30 -999 -999 -999  57.2  59.7 1022.6  4.4  1.003 -99.9 -99.99 -9.99
2019/12/07 19:00 CST    0.95   1.30 -999 -999 -999  57.2  59.5 1022.6  4.0  1.003 -99.9 -99.99 -9.99
2019/12/07 19:06 CST    0.96   1.32 -999 -999 -999  57.2  59.9 1022.7  5.6  1.004 -99.9 -99.99 -9.99
2019/12/07 19:12 CST    0.97   1.32 -999 -999 -999  57.2  59.9 1022.7  5.4  1.004 -99.9 -99.99 -9.99
2019/12/07 19:18 CST    0.98   1.33 -999 -999 -999  57.2  59.7 1022.6  4.9  1.004 -99.9 -99.99 -9.99
2019/12/07 19:24 CST    0.99   1.35 -999 -999 -999  57.2  59.7 1022.5  4.6  1.003 -99.9 -99.99 -9.99
2019/12/07 19:30 CST    1.00   1.36 -999 -999 -999  57.2  59.9 1022.5  5.2  1.004 -99.9 -99.99 -9.99
2019/12/07 19:36 CST    1.00   1.37 -999 -999 -999  57.4  59.9 1022.6  5.3  1.004 -99.9 -99.99 -9.99
2019/12/07 19:42 CST    1.01   1.37 -999 -999 -999  57.4  59.9 1022.6  5.6  1.004 -99.9 -99.99 -9.99
2019/12/07 19:48 CST    1.02   1.39 -999 -999 -999  57.4  59.7 1022.5  4.6  1.003 -99.9 -99.99 -9.99
2019/12/07 19:54 CST    1.03   1.39 -999 -999 -999  57.6  59.7 1022.6  4.4  1.003 -99.9 -99.99 -9.99
2019/12/07 20:00 CST    1.03   1.39 -999 -999 -999  57.6  59.9 1022.6  5.3  1.004 -99.9 -99.99 -9.99
2019/12/07 20:06 CST    1.04   1.39 -999 -999 -999  57.6  59.9 1022.5  5.5  1.004 -99.9 -99.99 -9.99
2019/12/07 20:12 CST    1.04   1.40 -999 -999 -999  57.4  59.7 1022.5  4.9  1.004 -99.9 -99.99 -9.99
2019/12/07 20:18 CST    1.05   1.41 -999 -999 -999  57.2  59.9 1022.5  5.2  1.004 -99.9 -99.99 -9.99
2019/12/07 20:24 CST    1.05   1.41 -999 -999 -999  57.2  59.9 1022.5  5.3  1.004 -99.9 -99.99 -9.99
2019/12/07 20:30 CST    1.06   1.43 -999 -999 -999  57.2  59.9 1022.4  5.3  1.004 -99.9 -99.99 -9.99
2019/12/07 20:36 CST    1.06   1.44 -999 -999 -999  57.2  59.7 1022.4  5.2  1.004 -99.9 -99.99 -9.99
2019/12/07 20:42 CST    1.06   1.46 -999 -999 -999  57.0  59.5 1022.4  4.3  1.003 -99.9 -99.99 -9.99
2019/12/07 20:48 CST    1.07   1.45 -999 -999 -999  57.2  60.1 1022.4  5.5  1.004 -99.9 -99.99 -9.99
2019/12/07 20:54 CST    1.07   1.47 -999 -999 -999  57.0  60.3 1022.4  6.9  1.005 -99.9 -99.99 -9.99
2019/12/07 21:00 CST    1.07   1.50 -999 -999 -999  56.5  59.7 1022.4  5.2  1.004 -99.9 -99.99 -9.99
2019/12/07 21:06 CST    1.07   1.51 -999 -999 -999  56.1  59.9 1022.4  5.5  1.004 -99.9 -99.99 -9.99
2019/12/07 21:12 CST    1.07   1.50 -999 -999 -999  56.1  60.3 1022.4  7.0  1.005 -99.9 -99.99 -9.99
2019/12/07 21:18 CST    1.07   1.50 -999 -999 -999  55.9  60.3 1022.3  6.5  1.005 -99.9 -99.99 -9.99
2019/12/07 21:24 CST    1.07   1.50 -999 -999 -999  55.8  60.3 1022.3  6.9  1.005 -99.9 -99.99 -9.99
2019/12/07 21:30 CST    1.07   1.49 -999 -999 -999  55.6  60.4 1022.3  7.4  1.006 -99.9 -99.99 -9.99
2019/12/07 21:36 CST    1.07   1.50 -999 -999 -999  55.6  59.9 1022.4  5.3  1.004 -99.9 -99.99 -9.99
2019/12/07 21:42 CST    1.07   1.50 -999 -999 -999  55.6  60.4 1022.3  7.8  1.006 -99.9 -99.99 -9.99
2019/12/07 21:48 CST    1.06   1.50 -999 -999 -999  55.6  60.3 1022.4  6.8  1.005 -99.9 -99.99 -9.99
2019/12/07 21:54 CST    1.06   1.48 -999 -999 -999  55.6  60.3 1022.4  6.3  1.005 -99.9 -99.99 -9.99
2019/12/07 22:00 CST    1.06   1.50 -999 -999 -999  55.6  60.1 1022.3  6.0  1.004 -99.9 -99.99 -9.99
2019/12/07 22:06 CST    1.05   1.51 -999 -999 -999  55.8  59.9 1022.2  6.0  1.005 -99.9 -99.99 -9.99
2019/12/07 22:12 CST    1.05   1.52 -999 -999 -999  55.4  60.3 1022.2  7.2  1.005 -99.9 -99.99 -9.99
2019/12/07 22:18 CST    1.04   1.53 -999 -999 -999  55.4  60.1 1022.2  5.9  1.004 -99.9 -99.99 -9.99
2019/12/07 22:24 CST    1.04   1.53 -999 -999 -999  55.6  60.1 1022.2  6.3  1.005 -99.9 -99.99 -9.99
2019/12/07 22:30 CST    1.03   1.52 -999 -999 -999  55.6  60.1 1022.1  5.9  1.004 -99.9 -99.99 -9.99
2019/12/07 22:36 CST    1.02   1.52 -999 -999 -999  55.6  60.1 1022.0  6.2  1.005 -99.9 -99.99 -9.99
2019/12/07 22:42 CST    1.02   1.52 -999 -999 -999  55.6  60.1 1022.0  6.1  1.005 -99.9 -99.99 -9.99
2019/12/07 22:48 CST    1.01   1.51 -999 -999 -999  55.6  60.1 1021.9  6.3  1.005 -99.9 -99.99 -9.99
2019/12/07 22:54 CST    1.00   1.49 -999 -999 -999  55.6  60.1 1021.8  6.5  1.005 -99.9 -99.99 -9.99
2019/12/07 23:00 CST    0.99   1.50 -999 -999 -999  55.8  59.9 1021.8  5.9  1.004 -99.9 -99.99 -9.99
2019/12/07 23:06 CST    0.98   1.50 -999 -999 -999  55.8  59.9 1021.8  5.9  1.004 -99.9 -99.99 -9.99
2019/12/07 23:12 CST    0.97   1.50 -999 -999 -999  55.9  59.9 1021.7  5.8  1.004 -99.9 -99.99 -9.99
2019/12/07 23:18 CST    0.96   1.50 -999 -999 -999  56.1  59.5 1021.7  4.7  1.004 -99.9 -99.99 -9.99
2019/12/07 23:24 CST    0.95   1.49 -999 -999 -999  56.1  60.3 1021.7  6.4  1.005 -99.9 -99.99 -9.99
2019/12/07 23:30 CST    0.94   1.49 -999 -999 -999  56.3  60.1 1021.7  6.9  1.005 -99.9 -99.99 -9.99
2019/12/07 23:36 CST    0.93   1.48 -999 -999 -999  56.1  60.3 1021.7  7.2  1.005 -99.9 -99.99 -9.99
2019/12/07 23:42 CST    0.92   1.47 -999 -999 -999  56.1  60.1 1021.7  6.3  1.005 -99.9 -99.99 -9.99
2019/12/07 23:48 CST    0.91   1.46 -999 -999 -999  56.1  59.9 1021.6  5.9  1.004 -99.9 -99.99 -9.99
2019/12/07 23:54 CST    0.89   1.46 -999 -999 -999  56.1  60.3 1021.5  6.9  1.005 -99.9 -99.99 -9.99
2019/12/08 00:00 CST    0.88   1.45 -999 -999 -999  56.3  60.3 1021.4  7.4  1.006 -99.9 -99.99 -9.99
2019/12/08 00:06 CST    0.87   1.42 -999 -999 -999  56.3  60.3 1021.3  7.1  1.005 -99.9 -99.99 -9.99
2019/12/08 00:12 CST    0.85   1.42 -999 -999 -999  56.3  60.3 1021.2  7.2  1.005 -99.9 -99.99 -9.99
2019/12/08 00:18 CST    0.84   1.40 -999 -999 -999  56.3  59.9 1021.2  5.5  1.004 -99.9 -99.99 -9.99
2019/12/08 00:24 CST    0.82   1.39 -999 -999 -999  56.3  59.7 1021.1  5.1  1.004 -99.9 -99.99 -9.99
2019/12/08 00:30 CST    0.81   1.38 -999 -999 -999  56.1  59.7 1021.2  5.0  1.004 -99.9 -99.99 -9.99
2019/12/08 00:36 CST    0.79   1.37 -999 -999 -999  56.3  59.9 1021.1  5.8  1.004 -99.9 -99.99 -9.99
2019/12/08 00:42 CST    0.78   1.35 -999 -999 -999  56.1  59.7 1021.0  5.6  1.004 -99.9 -99.99 -9.99
2019/12/08 00:48 CST    0.76   1.33 -999 -999 -999  56.1  59.7 1021.0  5.4  1.004 -99.9 -99.99 -9.99
2019/12/08 00:54 CST    0.75   1.32 -999 -999 -999  56.1  59.7 1021.0  5.4  1.004 -99.9 -99.99 -9.99
2019/12/08 01:00 CST    0.73   1.29 -999 -999 -999  56.1  59.9 1021.0  5.7  1.004 -99.9 -99.99 -9.99
2019/12/08 01:06 CST    0.71   1.28 -999 -999 -999  56.1  59.9 1021.1  6.1  1.005 -99.9 -99.99 -9.99
2019/12/08 01:12 CST    0.70   1.26 -999 -999 -999  56.1  59.9 1021.1  6.1  1.005 -99.9 -99.99 -9.99
2019/12/08 01:18 CST    0.68   1.24 -999 -999 -999  56.1  59.7 1021.0  5.5  1.004 -99.9 -99.99 -9.99
2019/12/08 01:24 CST    0.66   1.20 -999 -999 -999  55.9  59.7 1021.0  5.5  1.004 -99.9 -99.99 -9.99
2019/12/08 01:30 CST    0.65   1.18 -999 -999 -999  55.9  59.5 1021.0  4.8  1.004 -99.9 -99.99 -9.99
2019/12/08 01:36 CST    0.63   1.16 -999 -999 -999  55.9  59.5 1020.9  5.0  1.004 -99.9 -99.99 -9.99
2019/12/08 01:42 CST    0.61   1.14 -999 -999 -999  56.1  59.5 1020.9  4.6  1.003 -99.9 -99.99 -9.99
2019/12/08 01:48 CST    0.59   1.12 -999 -999 -999  56.1  59.5 1020.7  5.0  1.004 -99.9 -99.99 -9.99
2019/12/08 01:54 CST    0.58   1.09 -999 -999 -999  56.1  59.7 1020.8  5.6  1.004 -99.9 -99.99 -9.99
2019/12/08 02:00 CST    0.56   1.07 -999 -999 -999  55.9  59.7 1020.7  5.8  1.004 -99.9 -99.99 -9.99
2019/12/08 02:06 CST    0.54   1.05 -999 -999 -999  55.9  59.7 1020.7  5.0  1.004 -99.9 -99.99 -9.99
2019/12/08 02:12 CST    0.53   1.03 -999 -999 -999  56.1  59.5 1020.7  4.8  1.004 -99.9 -99.99 -9.99
2019/12/08 02:18 CST    0.51   1.01 -999 -999 -999  56.3  59.5 1020.7  4.9  1.004 -99.9 -99.99 -9.99
2019/12/08 02:24 CST    0.49   0.97 -999 -999 -999  56.1  59.7 1020.6  5.5  1.004 -99.9 -99.99 -9.99
2019/12/08 02:30 CST    0.47   0.96 -999 -999 -999  56.3  59.5 1020.6  4.7  1.004 -99.9 -99.99 -9.99
2019/12/08 02:36 CST    0.46   0.93 -999 -999 -999  56.3  59.5 1020.5  4.8  1.004 -99.9 -99.99 -9.99
2019/12/08 02:42 CST    0.44   0.91 -999 -999 -999  56.5  59.4 1020.5  4.5  1.003 -99.9 -99.99 -9.99
2019/12/08 02:48 CST    0.42   0.89 -999 -999 -999  56.5  59.4 1020.4  4.6  1.003 -99.9 -99.99 -9.99
2019/12/08 02:54 CST    0.41   0.86 -999 -999 -999  56.5  59.4 1020.5  4.2  1.003 -99.9 -99.99 -9.99
2019/12/08 03:00 CST    0.39   0.84 -999 -999 -999  56.7  59.2 1020.5  3.9  1.003 -99.9 -99.99 -9.99
2019/12/08 03:06 CST    0.38   0.82 -999 -999 -999  56.5  59.2 1020.4  3.9  1.003 -99.9 -99.99 -9.99
2019/12/08 03:12 CST    0.36   0.79 -999 -999 -999  56.3  59.2 1020.4  3.7  1.003 -99.9 -99.99 -9.99
2019/12/08 03:18 CST    0.35   0.77 -999 -999 -999  56.3  59.0 1020.3  3.5  1.003 -99.9 -99.99 -9.99
2019/12/08 03:24 CST    0.33   0.75 -999 -999 -999  56.3  59.2 1020.4  3.7  1.003 -99.9 -99.99 -9.99
2019/12/08 03:30 CST    0.32   0.73 -999 -999 -999  56.3  59.2 1020.4  3.8  1.003 -99.9 -99.99 -9.99
2019/12/08 03:36 CST    0.30   0.72 -999 -999 -999  56.3  59.2 1020.4  3.8  1.003 -99.9 -99.99 -9.99
2019/12/08 03:42 CST    0.29   0.70 -999 -999 -999  56.1  59.4 1020.4  4.0  1.003 -99.9 -99.99 -9.99
2019/12/08 03:48 CST    0.27   0.68 -999 -999 -999  56.3  59.2 1020.4  3.8  1.003 -99.9 -99.99 -9.99
2019/12/08 03:54 CST    0.26 -99.99 -999 -999 -999 -99.9 -99.9 -999.9 -9.9 -9.999 -99.9 -99.99 -9.99
2019/12/08 04:00 CST    0.25 -99.99 -999 -999 -999 -99.9 -99.9 -999.9 -9.9 -9.999 -99.9 -99.99 -9.99
2019/12/08 04:06 CST    0.23 -99.99 -999 -999 -999 -99.9 -99.9 -999.9 -9.9 -9.999 -99.9 -99.99 -9.99
2019/12/08 04:12 CST    0.22 -99.99 -999 -999 -999 -99.9 -99.9 -999.9 -9.9 -9.999 -99.9 -99.99 -9.99
2019/12/08 04:18 CST    0.21 -99.99 -999 -999 -999 -99.9 -99.9 -999.9 -9.9 -9.999 -99.9 -99.99 -9.99
2019/12/08 04:24 CST    0.20 -99.99 -999 -999 -999 -99.9 -99.9 -999.9 -9.9 -9.999 -99.9 -99.99 -9.99
2019/12/08 04:30 CST    0.19 -99.99 -999 -999 -999 -99.9 -99.9 -999.9 -9.9 -9.999 -99.9 -99.99 -9.99
2019/12/08 04:36 CST    0.17 -99.99 -999 -999 -999 -99.9 -99.9 -999.9 -9.9 -9.999 -99.9 -99.99 -9.99
2019/12/08 04:42 CST    0.16 -99.99 -999 -999 -999 -99.9 -99.9 -999.9 -9.9 -9.999 -99.9 -99.99 -9.99
2019/12/08 04:48 CST    0.15 -99.99 -999 -999 -999 -99.9 -99.9 -999.9 -9.9 -9.999 -99.9 -99.99 -9.99
2019/12/08 04:54 CST    0.14 -99.99 -999 -999 -999 -99.9 -99.9 -999.9 -9.9 -9.999 -99.9 -99.99 -9.99
2019/12/08 05:00 CST    0.13 -99.99 -999 -999 -999 -99.9 -99.9 -999.9 -9.9 -9.999 -99.9 -99.99 -9.99
2019/12/08 05:06 CST    0.12 -99.99 -999 -999 -999 -99.9 -99.9 -999.9 -9.9 -9.999 -99.9 -99.99 -9.99
2019/12/08 05:12 CST    0.11 -99.99 -999 -999 -999 -99.9 -99.9 -999.9 -9.9 -9.999 -99.9 -99.99 -9.99
2019/12/08 05:18 CST    0.10 -99.99 -999 -999 -999 -99.9 -99.9 -999.9 -9.9 -9.999 -99.9 -99.99 -9.99
2019/12/08 05:24 CST    0.09 -99.99 -999 -999 -999 -99.9 -99.9 -999.9 -9.9 -9.999 -99.9 -99.99 -9.99
2019/12/08 05:30 CST    0.09 -99.99 -999 -999 -999 -99.9 -99.9 -999.9 -9.9 -9.999 -99.9 -99.99 -9.99
2019/12/08 05:36 CST    0.08 -99.99 -999 -999 -999 -99.9 -99.9 -999.9 -9.9 -9.999 -99.9 -99.99 -9.99
2019/12/08 05:42 CST    0.07 -99.99 -999 -999 -999 -99.9 -99.9 -999.9 -9.9 -9.999 -99.9 -99.99 -9.99
2019/12/08 05:48 CST    0.06 -99.99 -999 -999 -999 -99.9 -99.9 -999.9 -9.9 -9.999 -99.9 -99.99 -9.99
2019/12/08 05:54 CST    0.06 -99.99 -999 -999 -999 -99.9 -99.9 -999.9 -9.9 -9.999 -99.9 -99.99 -9.99
2019/12/08 06:00 CST    0.05 -99.99 -999 -999 -999 -99.9 -99.9 -999.9 -9.9 -9.999 -99.9 -99.99 -9.99
2019/12/08 06:06 CST    0.04 -99.99 -999 -999 -999 -99.9 -99.9 -999.9 -9.9 -9.999 -99.9 -99.99 -9.99
2019/12/08 06:12 CST    0.04 -99.99 -999 -999 -999 -99.9 -99.9 -999.9 -9.9 -9.999 -99.9 -99.99 -9.99
2019/12/08 06:18 CST    0.03 -99.99 -999 -999 -999 -99.9 -99.9 -999.9 -9.9 -9.999 -99.9 -99.99 -9.99
2019/12/08 06:24 CST    0.02 -99.99 -999 -999 -999 -99.9 -99.9 -999.9 -9.9 -9.999 -99.9 -99.99 -9.99
2019/12/08 06:30 CST    0.02 -99.99 -999 -999 -999 -99.9 -99.9 -999.9 -9.9 -9.999 -99.9 -99.99 -9.99
2019/12/08 06:36 CST    0.01 -99.99 -999 -999 -999 -99.9 -99.9 -999.9 -9.9 -9.999 -99.9 -99.99 -9.99
2019/12/08 06:42 CST    0.01 -99.99 -999 -999 -999 -99.9 -99.9 -999.9 -9.9 -9.999 -99.9 -99.99 -9.99
2019/12/08 06:48 CST    0.01 -99.99 -999 -999 -999 -99.9 -99.9 -999.9 -9.9 -9.999 -99.9 -99.99 -9.99
2019/12/08 06:54 CST    0.00 -99.99 -999 -999 -999 -99.9 -99.9 -999.9 -9.9 -9.999 -99.9 -99.99 -9.99
2019/12/08 07:00 CST   -0.00 -99.99 -999 -999 -999 -99.9 -99.9 -999.9 -9.9 -9.999 -99.9 -99.99 -9.99
2019/12/08 07:06 CST   -0.01 -99.99 -999 -999 -999 -99.9 -99.9 -999.9 -9.9 -9.999 -99.9 -99.99 -9.99
2019/12/08 07:12 CST   -0.01 -99.99 -999 -999 -999 -99.9 -99.9 -999.9 -9.9 -9.999 -99.9 -99.99 -9.99
2019/12/08 07:18 CST   -0.01 -99.99 -999 -999 -999 -99.9 -99.9 -999.9 -9.9 -9.999 -99.9 -99.99 -9.99
2019/12/08 07:24 CST   -0.01 -99.99 -999 -999 -999 -99.9 -99.9 -999.9 -9.9 -9.999 -99.9 -99.99 -9.99
2019/12/08 07:30 CST   -0.02 -99.99 -999 -999 -999 -99.9 -99.9 -999.9 -9.9 -9.999 -99.9 -99.99 -9.99
2019/12/08 07:36 CST   -0.02 -99.99 -999 -999 -999 -99.9 -99.9 -999.9 -9.9 -9.999 -99.9 -99.99 -9.99
2019/12/08 07:42 CST   -0.02 -99.99 -999 -999 -999 -99.9 -99.9 -999.9 -9.9 -9.999 -99.9 -99.99 -9.99
2019/12/08 07:48 CST   -0.02 -99.99 -999 -999 -999 -99.9 -99.9 -999.9 -9.9 -9.999 -99.9 -99.99 -9.99
2019/12/08 07:54 CST   -0.02 -99.99 -999 -999 -999 -99.9 -99.9 -999.9 -9.9 -9.999 -99.9 -99.99 -9.99
2019/12/08 08:00 CST   -0.02 -99.99 -999 -999 -999 -99.9 -99.9 -999.9 -9.9 -9.999 -99.9 -99.99 -9.99
2019/12/08 08:06 CST   -0.02 -99.99 -999 -999 -999 -99.9 -99.9 -999.9 -9.9 -9.999 -99.9 -99.99 -9.99
2019/12/08 08:12 CST   -0.02 -99.99 -999 -999 -999 -99.9 -99.9 -999.9 -9.9 -9.999 -99.9 -99.99 -9.99
2019/12/08 08:18 CST   -0.02 -99.99 -999 -999 -999 -99.9 -99.9 -999.9 -9.9 -9.999 -99.9 -99.99 -9.99
2019/12/08 08:24 CST   -0.02 -99.99 -999 -999 -999 -99.9 -99.9 -999.9 -9.9 -9.999 -99.9 -99.99 -9.99
2019/12/08 08:30 CST   -0.01 -99.99 -999 -999 -999 -99.9 -99.9 -999.9 -9.9 -9.999 -99.9 -99.99 -9.99
2019/12/08 08:36 CST   -0.01 -99.99 -999 -999 -999 -99.9 -99.9 -999.9 -9.9 -9.999 -99.9 -99.99 -9.99
2019/12/08 08:42 CST   -0.01 -99.99 -999 -999 -999 -99.9 -99.9 -999.9 -9.9 -9.999 -99.9 -99.99 -9.99
2019/12/08 08:48 CST   -0.01 -99.99 -999 -999 -999 -99.9 -99.9 -999.9 -9.9 -9.999 -99.9 -99.99 -9.99
2019/12/08 08:54 CST   -0.00 -99.99 -999 -999 -999 -99.9 -99.9 -999.9 -9.9 -9.999 -99.9 -99.99 -9.99
2019/12/08 09:00 CST    0.00 -99.99 -999 -999 -999 -99.9 -99.9 -999.9 -9.9 -9.999 -99.9 -99.99 -9.99
2019/12/08 09:06 CST    0.01 -99.99 -999 -999 -999 -99.9 -99.9 -999.9 -9.9 -9.999 -99.9 -99.99 -9.99
2019/12/08 09:12 CST    0.01 -99.99 -999 -999 -999 -99.9 -99.9 -999.9 -9.9 -9.999 -99.9 -99.99 -9.99
2019/12/08 09:18 CST    0.02 -99.99 -999 -999 -999 -99.9 -99.9 -999.9 -9.9 -9.999 -99.9 -99.99 -9.99
2019/12/08 09:24 CST    0.02 -99.99 -999 -999 -999 -99.9 -99.9 -999.9 -9.9 -9.999 -99.9 -99.99 -9.99
2019/12/08 09:30 CST    0.03 -99.99 -999 -999 -999 -99.9 -99.9 -999.9 -9.9 -9.999 -99.9 -99.99 -9.99
2019/12/08 09:36 CST    0.03 -99.99 -999 -999 -999 -99.9 -99.9 -999.9 -9.9 -9.999 -99.9 -99.99 -9.99
2019/12/08 09:42 CST    0.04 -99.99 -999 -999 -999 -99.9 -99.9 -999.9 -9.9 -9.999 -99.9 -99.99 -9.99
2019/12/08 09:48 CST    0.04 -99.99 -999 -999 -999 -99.9 -99.9 -999.9 -9.9 -9.999 -99.9 -99.99 -9.99
2019/12/08 09:54 CST    0.05 -99.99 -999 -999 -999 -99.9 -99.9 -999.9 -9.9 -9.999 -99.9 -99.99 -9.99
2019/12/08 10:00 CST    0.06 -99.99 -999 -999 -999 -99.9 -99.9 -999.9 -9.9 -9.999 -99.9 -99.99 -9.99